createdAt,value
2023-02-07T00:04:23.817Z,101707.31
2023-02-07T00:10:25.704Z,101702.97
2023-02-07T00:16:28.499Z,101700.69
2023-02-07T00:22:30.522Z,101706.34
2023-02-07T00:28:32.768Z,101705.69
2023-02-07T00:34:36.249Z,101704.03
2023-02-07T00:40:38.201Z,101692.84
2023-02-07T00:46:40.217Z,101681.47
2023-02-07T00:52:42.145Z,101679.06
2023-02-07T00:58:44.095Z,101681.50
2023-02-07T01:04:46.185Z,101655.75
2023-02-07T01:10:48.799Z,101661.50
2023-02-07T01:16:50.796Z,101667.63
2023-02-07T01:22:52.687Z,101663.41
2023-02-07T01:28:56.322Z,101664.81
2023-02-07T01:34:58.209Z,101663.75
2023-02-07T01:41:00.171Z,101660.44
2023-02-07T01:47:02.484Z,101663.00
2023-02-07T01:53:06.850Z,101657.28
2023-02-07T01:59:08.794Z,101662.47
2023-02-07T02:05:11.694Z,101665.16
2023-02-07T02:11:50.309Z,101657.13
2023-02-07T02:18:35.460Z,101669.69
2023-02-07T02:25:16.439Z,101675.75
2023-02-07T02:32:20.336Z,101671.25
2023-02-07T02:39:03.523Z,101658.88
2023-02-07T02:45:24.095Z,101668.88
2023-02-07T02:51:32.279Z,101658.97
2023-02-07T02:58:00.415Z,101661.84
2023-02-07T03:04:28.357Z,101663.88
2023-02-07T03:10:38.802Z,101654.97
2023-02-07T03:17:01.817Z,101635.94
2023-02-07T03:23:06.584Z,101642.97
2023-02-07T03:29:10.201Z,101631.34
2023-02-07T03:35:35.557Z,101639.09
2023-02-07T03:41:52.895Z,101634.00
2023-02-07T03:47:54.766Z,101612.56
2023-02-07T03:53:56.681Z,101595.28
2023-02-07T03:59:58.881Z,101588.94
2023-02-07T04:06:00.763Z,101597.78
2023-02-07T04:12:02.837Z,101594.41
2023-02-07T04:18:04.906Z,101587.78
2023-02-07T04:24:07.090Z,101601.03
2023-02-07T04:30:10.178Z,101593.69
2023-02-07T04:36:12.108Z,101601.22
2023-02-07T04:42:14.116Z,101600.72
2023-02-07T04:48:16.049Z,101615.34
2023-02-07T04:54:17.997Z,101630.56
2023-02-07T05:00:20.112Z,101624.91
2023-02-07T05:06:22.005Z,101628.78
2023-02-07T05:12:23.945Z,101624.53
2023-02-07T05:18:25.863Z,101633.59
2023-02-07T05:24:27.872Z,101641.50
2023-02-07T05:30:30.030Z,101654.94
2023-02-07T05:36:32.005Z,101670.75
2023-02-07T05:42:33.926Z,101673.53
2023-02-07T05:48:35.809Z,101676.56
2023-02-07T05:54:37.742Z,101686.22
2023-02-07T06:00:39.667Z,101691.03
2023-02-07T06:06:43.811Z,101679.34
2023-02-07T06:12:46.005Z,101681.09
2023-02-07T06:18:47.896Z,101672.56
2023-02-07T06:24:49.902Z,101691.56
2023-02-07T06:30:53.412Z,101675.25
2023-02-07T06:36:55.375Z,101667.31
2023-02-07T06:42:57.264Z,101649.75
2023-02-07T06:48:59.219Z,101647.13
2023-02-07T06:55:01.187Z,101653.97
2023-02-07T07:01:04.920Z,101674.78
2023-02-07T07:07:07.087Z,101683.81
2023-02-07T07:13:09.092Z,101697.56
2023-02-07T07:19:11.073Z,101683.38
2023-02-07T07:25:13.004Z,101693.63
2023-02-07T07:31:15.604Z,101693.00
2023-02-07T07:37:17.583Z,101702.50
2023-02-07T07:43:20.311Z,101694.31
2023-02-07T07:49:22.239Z,101707.22
2023-02-07T07:55:24.175Z,101702.56
2023-02-07T08:01:26.121Z,101711.09
2023-02-07T08:07:28.023Z,101698.31
2023-02-07T08:13:33.070Z,101694.59
2023-02-07T08:19:35.247Z,101686.56
2023-02-07T08:25:37.435Z,101686.00
2023-02-07T08:31:39.447Z,101682.78
2023-02-07T08:37:41.415Z,101683.34
2023-02-07T08:43:43.449Z,101676.94
2023-02-07T08:49:45.381Z,101694.78
2023-02-07T08:55:47.669Z,101692.06
2023-02-07T09:01:49.613Z,101695.44
2023-02-07T09:07:51.557Z,101703.53
2023-02-07T09:13:53.482Z,101700.13
2023-02-07T09:19:55.486Z,101691.09
2023-02-07T09:26:02.917Z,101702.00
2023-02-07T09:32:05.171Z,101700.91
2023-02-07T09:38:12.221Z,101692.66
2023-02-07T09:44:15.926Z,101713.00
2023-02-07T09:50:28.765Z,101709.84
2023-02-07T09:56:32.745Z,101708.38
2023-02-07T10:02:42.034Z,101706.53
2023-02-07T10:08:46.700Z,101718.41
2023-02-07T10:15:03.773Z,101713.03
2023-02-07T10:21:39.109Z,101711.84
2023-02-07T10:28:36.859Z,101723.97
2023-02-07T10:34:44.625Z,101721.84
2023-02-07T10:41:01.166Z,101721.56
2023-02-07T10:47:07.149Z,101711.28
2023-02-07T10:53:09.253Z,101710.44
2023-02-07T10:59:38.656Z,101698.69
2023-02-07T11:06:02.604Z,101688.34
2023-02-07T11:12:22.720Z,101686.34
2023-02-07T11:18:47.126Z,101678.50
2023-02-07T11:24:53.688Z,101683.75
2023-02-07T11:31:07.687Z,101683.59
2023-02-07T11:37:35.254Z,101669.50
2023-02-07T11:43:37.145Z,101662.84
2023-02-07T11:49:46.797Z,101652.31
2023-02-07T11:55:48.956Z,101647.22
2023-02-07T12:02:24.937Z,101637.81
2023-02-07T12:08:33.154Z,101641.69
2023-02-07T12:14:47.046Z,101641.63
2023-02-07T12:21:15.539Z,101646.34
2023-02-07T12:27:19.655Z,101631.28
2023-02-07T12:33:31.370Z,101629.56
2023-02-07T12:39:48.985Z,101627.00
2023-02-07T12:46:02.960Z,101623.56
2023-02-07T12:52:39.706Z,101614.38
2023-02-07T12:59:20.344Z,101614.53
2023-02-07T13:05:52.835Z,101614.00
2023-02-07T13:12:23.610Z,101606.81
2023-02-07T13:18:46.714Z,101613.31
2023-02-07T13:24:49.449Z,101615.34
2023-02-07T13:30:53.529Z,101598.28
2023-02-07T13:36:58.726Z,101590.63
2023-02-07T13:43:35.348Z,101595.25
2023-02-07T13:49:54.421Z,101594.47
2023-02-07T13:56:03.843Z,101614.53
2023-02-07T14:02:44.951Z,101611.44
2023-02-07T14:09:22.566Z,101601.53
2023-02-07T14:15:36.438Z,101593.38
2023-02-07T14:21:41.886Z,101597.34
2023-02-07T14:28:17.513Z,101599.97
2023-02-07T14:34:21.882Z,101602.34
2023-02-07T14:41:09.464Z,101606.47
2023-02-07T14:47:27.853Z,101601.13
2023-02-07T14:53:31.821Z,101605.00
2023-02-07T14:59:39.294Z,101601.13
2023-02-07T15:06:01.338Z,101596.66
2023-02-07T15:12:22.308Z,101608.00
2023-02-07T15:18:33.579Z,101599.84
2023-02-07T15:24:51.054Z,101603.88
2023-02-07T15:31:17.517Z,101608.19
2023-02-07T15:37:24.621Z,101604.00
2023-02-07T15:43:34.862Z,101601.22
2023-02-07T15:49:42.326Z,101601.25
2023-02-07T15:55:48.851Z,101599.94
2023-02-07T16:01:57.209Z,101599.06
2023-02-07T16:08:01.640Z,101601.00
2023-02-07T16:14:12.488Z,101596.06
2023-02-07T16:20:15.626Z,101596.22
2023-02-07T16:26:26.199Z,101589.25
2023-02-07T16:32:33.317Z,101589.84
2023-02-07T16:38:35.220Z,101591.13
2023-02-07T16:44:37.540Z,101597.63
2023-02-07T16:50:40.154Z,101596.13
2023-02-07T16:56:45.064Z,101597.91
2023-02-07T17:02:48.555Z,101594.41
2023-02-07T17:08:53.885Z,101595.59
2023-02-07T17:14:55.768Z,101594.81
2023-02-07T17:20:57.721Z,101602.88
2023-02-07T17:26:59.946Z,101599.13
2023-02-07T17:33:01.954Z,101598.34
2023-02-07T17:39:04.142Z,101602.81
2023-02-07T17:45:06.388Z,101611.75
2023-02-07T17:51:08.303Z,101616.44
2023-02-07T17:57:13.375Z,101623.84
2023-02-07T18:03:16.079Z,101620.84
2023-02-07T18:09:19.534Z,101626.16
2023-02-07T18:15:22.001Z,101622.00
2023-02-07T18:21:24.549Z,101623.19
2023-02-07T18:27:26.467Z,101613.25
2023-02-07T18:33:28.611Z,101620.41
2023-02-07T18:39:30.928Z,101622.53
2023-02-07T18:45:33.589Z,101615.09
2023-02-07T18:51:37.286Z,101617.09
2023-02-07T18:57:39.311Z,101623.94
2023-02-07T19:03:41.305Z,101623.28
2023-02-07T19:09:43.358Z,101637.31
2023-02-07T19:15:45.276Z,101639.03
2023-02-07T19:21:47.202Z,101634.38
2023-02-07T19:27:49.141Z,101632.75
2023-02-07T19:33:52.010Z,101641.22
2023-02-07T19:39:56.220Z,101639.16
2023-02-07T19:45:59.379Z,101637.88
2023-02-07T19:52:01.301Z,101643.97
2023-02-07T19:58:03.224Z,101641.84
2023-02-07T20:04:05.931Z,101636.56
2023-02-07T20:10:10.318Z,101638.44
2023-02-07T20:16:16.578Z,101643.22
2023-02-07T20:22:18.549Z,101630.28
2023-02-07T20:28:21.732Z,101634.09
2023-02-07T20:34:23.669Z,101634.47
2023-02-07T20:40:25.561Z,101622.72
2023-02-07T20:46:29.209Z,101625.78
2023-02-07T20:52:31.308Z,101636.44
2023-02-07T20:58:34.112Z,101639.44
2023-02-07T21:04:37.463Z,101637.94
2023-02-07T21:10:39.589Z,101631.59
2023-02-07T21:16:42.160Z,101628.19
2023-02-07T21:22:44.823Z,101626.50
2023-02-07T21:28:47.282Z,101619.56
2023-02-07T21:34:49.170Z,101622.94
2023-02-07T21:40:51.301Z,101618.44
2023-02-07T21:46:54.502Z,101627.03
2023-02-07T21:52:56.395Z,101623.69
2023-02-07T21:59:02.244Z,101619.13
2023-02-07T22:05:04.290Z,101611.69
2023-02-07T22:11:11.099Z,101609.75
2023-02-07T22:17:13.000Z,101615.84
2023-02-07T22:23:14.896Z,101608.28
2023-02-07T22:29:16.787Z,101610.94
2023-02-07T22:35:18.692Z,101608.41
2023-02-07T22:41:36.326Z,101608.66
2023-02-07T22:47:38.208Z,101607.03
2023-02-07T22:53:41.171Z,101600.41
2023-02-07T22:59:43.082Z,101604.13
2023-02-07T23:05:45.044Z,101599.22
2023-02-07T23:11:47.016Z,101605.44
2023-02-07T23:17:49.197Z,101603.09
2023-02-07T23:23:51.156Z,101618.81
2023-02-07T23:29:53.077Z,101619.78
2023-02-07T23:35:54.989Z,101620.78
2023-02-07T23:41:58.284Z,101631.44
2023-02-07T23:48:02.300Z,101637.53
2023-02-07T23:54:04.344Z,101637.38
